sensor_id;sensor_type;location;lat;lon;timestamp;P1;durP1;ratioP1;P2;durP2;ratioP2
18176;SDS011;9213;50.858;3.964;2022-12-18T00:02:02;85.77;;;43.13;;
18176;SDS011;9213;50.858;3.964;2022-12-18T00:04:29;85.37;;;42.53;;
18176;SDS011;9213;50.858;3.964;2022-12-18T00:06:56;83.77;;;43.13;;
18176;SDS011;9213;50.858;3.964;2022-12-18T00:09:23;88.03;;;43.13;;
18176;SDS011;9213;50.858;3.964;2022-12-18T00:11:50;93.50;;;45.27;;
18176;SDS011;9213;50.858;3.964;2022-12-18T00:14:17;81.80;;;42.80;;
18176;SDS011;9213;50.858;3.964;2022-12-18T00:16:44;85.47;;;44.10;;
18176;SDS011;9213;50.858;3.964;2022-12-18T00:19:14;78.70;;;40.17;;
18176;SDS011;9213;50.858;3.964;2022-12-18T00:21:42;81.83;;;40.10;;
18176;SDS011;9213;50.858;3.964;2022-12-18T00:24:09;81.17;;;41.97;;
18176;SDS011;9213;50.858;3.964;2022-12-18T00:26:37;78.43;;;38.57;;
18176;SDS011;9213;50.858;3.964;2022-12-18T00:29:06;77.83;;;41.07;;
18176;SDS011;9213;50.858;3.964;2022-12-18T00:31:36;75.40;;;41.33;;
18176;SDS011;9213;50.858;3.964;2022-12-18T00:34:04;71.70;;;39.27;;
18176;SDS011;9213;50.858;3.964;2022-12-18T00:36:33;115.13;;;46.00;;
18176;SDS011;9213;50.858;3.964;2022-12-18T00:39:01;95.57;;;48.13;;
18176;SDS011;9213;50.858;3.964;2022-12-18T00:41:30;83.23;;;42.67;;
18176;SDS011;9213;50.858;3.964;2022-12-18T00:44:16;99.87;;;48.07;;
18176;SDS011;9213;50.858;3.964;2022-12-18T00:46:44;86.40;;;44.23;;
18176;SDS011;9213;50.858;3.964;2022-12-18T00:49:12;83.97;;;42.57;;
18176;SDS011;9213;50.858;3.964;2022-12-18T00:51:40;86.00;;;43.67;;
18176;SDS011;9213;50.858;3.964;2022-12-18T00:54:07;86.37;;;42.17;;
18176;SDS011;9213;50.858;3.964;2022-12-18T00:56:35;85.03;;;39.50;;
18176;SDS011;9213;50.858;3.964;2022-12-18T00:59:03;73.70;;;37.83;;
18176;SDS011;9213;50.858;3.964;2022-12-18T01:01:30;80.70;;;40.47;;
18176;SDS011;9213;50.858;3.964;2022-12-18T01:03:57;70.00;;;37.93;;
18176;SDS011;9213;50.858;3.964;2022-12-18T01:06:25;70.47;;;36.13;;
18176;SDS011;9213;50.858;3.964;2022-12-18T01:08:53;72.37;;;35.63;;
18176;SDS011;9213;50.858;3.964;2022-12-18T01:11:20;70.77;;;37.23;;
18176;SDS011;9213;50.858;3.964;2022-12-18T01:13:47;70.30;;;34.60;;
18176;SDS011;9213;50.858;3.964;2022-12-18T01:16:15;70.47;;;34.60;;
18176;SDS011;9213;50.858;3.964;2022-12-18T01:18:43;67.50;;;36.77;;
18176;SDS011;9213;50.858;3.964;2022-12-18T01:21:11;68.93;;;36.53;;
18176;SDS011;9213;50.858;3.964;2022-12-18T01:23:39;68.43;;;35.73;;
18176;SDS011;9213;50.858;3.964;2022-12-18T01:26:08;68.67;;;34.10;;
18176;SDS011;9213;50.858;3.964;2022-12-18T01:28:38;66.30;;;33.27;;
18176;SDS011;9213;50.858;3.964;2022-12-18T01:31:13;63.57;;;31.33;;
18176;SDS011;9213;50.858;3.964;2022-12-18T01:33:42;60.43;;;32.50;;
18176;SDS011;9213;50.858;3.964;2022-12-18T01:36:14;49.20;;;29.40;;
18176;SDS011;9213;50.858;3.964;2022-12-18T01:38:42;63.77;;;30.43;;
18176;SDS011;9213;50.858;3.964;2022-12-18T01:41:12;58.37;;;29.67;;
18176;SDS011;9213;50.858;3.964;2022-12-18T01:43:43;58.03;;;29.83;;
18176;SDS011;9213;50.858;3.964;2022-12-18T01:46:12;59.43;;;29.10;;
18176;SDS011;9213;50.858;3.964;2022-12-18T01:48:39;51.50;;;27.83;;
18176;SDS011;9213;50.858;3.964;2022-12-18T01:51:07;51.63;;;29.67;;
18176;SDS011;9213;50.858;3.964;2022-12-18T01:53:36;50.43;;;29.47;;
18176;SDS011;9213;50.858;3.964;2022-12-18T01:56:05;51.07;;;28.00;;
18176;SDS011;9213;50.858;3.964;2022-12-18T01:58:35;51.90;;;27.30;;
18176;SDS011;9213;50.858;3.964;2022-12-18T02:01:07;49.70;;;26.23;;
18176;SDS011;9213;50.858;3.964;2022-12-18T02:03:34;57.77;;;28.83;;
18176;SDS011;9213;50.858;3.964;2022-12-18T02:06:04;61.20;;;30.20;;
18176;SDS011;9213;50.858;3.964;2022-12-18T02:08:37;55.83;;;28.77;;
18176;SDS011;9213;50.858;3.964;2022-12-18T02:11:11;51.63;;;27.87;;
18176;SDS011;9213;50.858;3.964;2022-12-18T02:13:50;52.53;;;26.90;;
18176;SDS011;9213;50.858;3.964;2022-12-18T02:16:23;50.47;;;27.53;;
18176;SDS011;9213;50.858;3.964;2022-12-18T02:18:56;51.03;;;28.33;;
18176;SDS011;9213;50.858;3.964;2022-12-18T02:21:27;48.10;;;27.47;;
18176;SDS011;9213;50.858;3.964;2022-12-18T02:24:05;48.20;;;24.90;;
18176;SDS011;9213;50.858;3.964;2022-12-18T02:26:45;49.33;;;26.00;;
18176;SDS011;9213;50.858;3.964;2022-12-18T02:29:15;51.67;;;26.07;;
18176;SDS011;9213;50.858;3.964;2022-12-18T02:31:47;52.93;;;27.60;;
18176;SDS011;9213;50.858;3.964;2022-12-18T02:34:17;61.67;;;30.03;;
18176;SDS011;9213;50.858;3.964;2022-12-18T02:36:46;52.63;;;29.43;;
18176;SDS011;9213;50.858;3.964;2022-12-18T02:39:14;56.30;;;29.10;;
18176;SDS011;9213;50.858;3.964;2022-12-18T02:41:45;56.83;;;30.33;;
18176;SDS011;9213;50.858;3.964;2022-12-18T02:44:13;61.13;;;29.73;;
18176;SDS011;9213;50.858;3.964;2022-12-18T02:46:41;53.87;;;30.67;;
18176;SDS011;9213;50.858;3.964;2022-12-18T02:49:12;57.57;;;31.87;;
18176;SDS011;9213;50.858;3.964;2022-12-18T02:51:51;61.27;;;33.53;;
18176;SDS011;9213;50.858;3.964;2022-12-18T02:54:25;64.70;;;31.77;;
18176;SDS011;9213;50.858;3.964;2022-12-18T02:57:05;63.93;;;31.23;;
18176;SDS011;9213;50.858;3.964;2022-12-18T02:59:39;53.70;;;29.50;;
18176;SDS011;9213;50.858;3.964;2022-12-18T03:02:15;52.23;;;29.27;;
18176;SDS011;9213;50.858;3.964;2022-12-18T03:04:48;54.90;;;29.13;;
18176;SDS011;9213;50.858;3.964;2022-12-18T03:07:21;52.57;;;28.87;;
18176;SDS011;9213;50.858;3.964;2022-12-18T03:09:59;55.27;;;29.10;;
18176;SDS011;9213;50.858;3.964;2022-12-18T03:12:29;49.03;;;27.47;;
18176;SDS011;9213;50.858;3.964;2022-12-18T03:15:01;55.90;;;27.00;;
18176;SDS011;9213;50.858;3.964;2022-12-18T03:17:35;45.80;;;25.90;;
18176;SDS011;9213;50.858;3.964;2022-12-18T03:20:07;45.63;;;25.47;;
18176;SDS011;9213;50.858;3.964;2022-12-18T03:22:38;41.53;;;23.40;;
18176;SDS011;9213;50.858;3.964;2022-12-18T03:25:09;47.73;;;26.83;;
18176;SDS011;9213;50.858;3.964;2022-12-18T03:27:41;41.33;;;24.50;;
18176;SDS011;9213;50.858;3.964;2022-12-18T03:30:12;49.03;;;26.07;;
18176;SDS011;9213;50.858;3.964;2022-12-18T03:32:41;44.00;;;25.13;;
18176;SDS011;9213;50.858;3.964;2022-12-18T03:35:13;48.83;;;26.57;;
18176;SDS011;9213;50.858;3.964;2022-12-18T03:37:43;49.17;;;25.63;;
18176;SDS011;9213;50.858;3.964;2022-12-18T03:40:10;48.30;;;27.27;;
18176;SDS011;9213;50.858;3.964;2022-12-18T03:42:39;47.80;;;26.67;;
18176;SDS011;9213;50.858;3.964;2022-12-18T03:45:17;45.80;;;26.83;;
18176;SDS011;9213;50.858;3.964;2022-12-18T03:47:56;46.13;;;26.90;;
18176;SDS011;9213;50.858;3.964;2022-12-18T03:50:29;42.70;;;25.33;;
18176;SDS011;9213;50.858;3.964;2022-12-18T03:53:06;48.67;;;26.27;;
18176;SDS011;9213;50.858;3.964;2022-12-18T03:55:40;47.80;;;24.70;;
18176;SDS011;9213;50.858;3.964;2022-12-18T03:58:09;47.57;;;26.90;;
18176;SDS011;9213;50.858;3.964;2022-12-18T04:00:42;47.93;;;24.93;;
18176;SDS011;9213;50.858;3.964;2022-12-18T04:03:10;50.73;;;27.13;;
18176;SDS011;9213;50.858;3.964;2022-12-18T04:05:38;45.90;;;24.57;;
18176;SDS011;9213;50.858;3.964;2022-12-18T04:08:07;46.50;;;25.17;;
18176;SDS011;9213;50.858;3.964;2022-12-18T04:10:34;40.80;;;23.47;;
18176;SDS011;9213;50.858;3.964;2022-12-18T04:13:02;43.93;;;24.27;;
18176;SDS011;9213;50.858;3.964;2022-12-18T04:15:30;41.17;;;23.93;;
18176;SDS011;9213;50.858;3.964;2022-12-18T04:18:00;45.43;;;23.87;;
18176;SDS011;9213;50.858;3.964;2022-12-18T04:20:27;43.37;;;23.10;;
18176;SDS011;9213;50.858;3.964;2022-12-18T04:22:55;37.63;;;23.23;;
18176;SDS011;9213;50.858;3.964;2022-12-18T04:25:21;37.77;;;21.93;;
18176;SDS011;9213;50.858;3.964;2022-12-18T04:27:48;41.73;;;22.13;;
18176;SDS011;9213;50.858;3.964;2022-12-18T04:30:15;35.47;;;22.33;;
18176;SDS011;9213;50.858;3.964;2022-12-18T04:32:44;43.63;;;21.50;;
18176;SDS011;9213;50.858;3.964;2022-12-18T04:35:10;39.23;;;22.13;;
18176;SDS011;9213;50.858;3.964;2022-12-18T04:37:37;37.23;;;21.73;;
18176;SDS011;9213;50.858;3.964;2022-12-18T04:40:05;43.00;;;22.63;;
18176;SDS011;9213;50.858;3.964;2022-12-18T04:42:32;42.03;;;22.53;;
18176;SDS011;9213;50.858;3.964;2022-12-18T04:44:59;38.67;;;21.37;;
18176;SDS011;9213;50.858;3.964;2022-12-18T04:47:26;38.67;;;22.13;;
18176;SDS011;9213;50.858;3.964;2022-12-18T04:49:54;36.77;;;21.70;;
18176;SDS011;9213;50.858;3.964;2022-12-18T04:52:21;39.13;;;21.70;;
18176;SDS011;9213;50.858;3.964;2022-12-18T04:54:48;45.40;;;23.20;;
18176;SDS011;9213;50.858;3.964;2022-12-18T04:57:15;43.20;;;22.40;;
18176;SDS011;9213;50.858;3.964;2022-12-18T04:59:43;39.83;;;21.10;;
18176;SDS011;9213;50.858;3.964;2022-12-18T05:02:10;40.90;;;22.07;;
18176;SDS011;9213;50.858;3.964;2022-12-18T05:04:36;35.43;;;21.97;;
18176;SDS011;9213;50.858;3.964;2022-12-18T05:07:05;36.13;;;20.03;;
18176;SDS011;9213;50.858;3.964;2022-12-18T05:09:31;35.27;;;21.20;;
18176;SDS011;9213;50.858;3.964;2022-12-18T05:11:58;36.97;;;20.03;;
18176;SDS011;9213;50.858;3.964;2022-12-18T05:14:25;37.90;;;22.23;;
18176;SDS011;9213;50.858;3.964;2022-12-18T05:16:54;29.97;;;18.60;;
18176;SDS011;9213;50.858;3.964;2022-12-18T05:19:21;34.33;;;19.50;;
18176;SDS011;9213;50.858;3.964;2022-12-18T05:21:48;32.13;;;18.53;;
18176;SDS011;9213;50.858;3.964;2022-12-18T05:24:16;30.93;;;18.07;;
18176;SDS011;9213;50.858;3.964;2022-12-18T05:26:43;31.93;;;18.50;;
18176;SDS011;9213;50.858;3.964;2022-12-18T05:29:10;32.97;;;17.30;;
18176;SDS011;9213;50.858;3.964;2022-12-18T05:31:37;28.27;;;16.93;;
18176;SDS011;9213;50.858;3.964;2022-12-18T05:34:04;32.97;;;17.80;;
18176;SDS011;9213;50.858;3.964;2022-12-18T05:36:31;33.73;;;18.23;;
18176;SDS011;9213;50.858;3.964;2022-12-18T05:38:58;28.80;;;17.00;;
18176;SDS011;9213;50.858;3.964;2022-12-18T05:41:26;32.97;;;17.37;;
18176;SDS011;9213;50.858;3.964;2022-12-18T05:43:53;30.77;;;17.60;;
18176;SDS011;9213;50.858;3.964;2022-12-18T05:46:20;26.00;;;16.67;;
18176;SDS011;9213;50.858;3.964;2022-12-18T05:48:47;28.07;;;16.53;;
18176;SDS011;9213;50.858;3.964;2022-12-18T05:51:15;28.33;;;15.63;;
18176;SDS011;9213;50.858;3.964;2022-12-18T05:53:45;28.57;;;15.87;;
18176;SDS011;9213;50.858;3.964;2022-12-18T05:56:17;26.63;;;16.03;;
18176;SDS011;9213;50.858;3.964;2022-12-18T05:58:47;26.40;;;15.63;;
18176;SDS011;9213;50.858;3.964;2022-12-18T06:01:17;26.67;;;16.20;;
18176;SDS011;9213;50.858;3.964;2022-12-18T06:03:46;30.57;;;15.47;;
18176;SDS011;9213;50.858;3.964;2022-12-18T06:06:14;31.27;;;16.03;;
18176;SDS011;9213;50.858;3.964;2022-12-18T06:08:41;26.23;;;15.97;;
18176;SDS011;9213;50.858;3.964;2022-12-18T06:11:08;30.83;;;16.57;;
18176;SDS011;9213;50.858;3.964;2022-12-18T06:13:35;28.10;;;15.73;;
18176;SDS011;9213;50.858;3.964;2022-12-18T06:16:04;25.40;;;16.07;;
18176;SDS011;9213;50.858;3.964;2022-12-18T06:18:32;25.43;;;15.87;;
18176;SDS011;9213;50.858;3.964;2022-12-18T06:20:59;24.53;;;15.00;;
18176;SDS011;9213;50.858;3.964;2022-12-18T06:23:26;28.70;;;16.30;;
18176;SDS011;9213;50.858;3.964;2022-12-18T06:25:53;28.20;;;16.53;;
18176;SDS011;9213;50.858;3.964;2022-12-18T06:28:20;28.90;;;16.87;;
18176;SDS011;9213;50.858;3.964;2022-12-18T06:30:47;25.83;;;15.77;;
18176;SDS011;9213;50.858;3.964;2022-12-18T06:33:16;24.90;;;15.70;;
18176;SDS011;9213;50.858;3.964;2022-12-18T06:35:43;27.13;;;16.67;;
18176;SDS011;9213;50.858;3.964;2022-12-18T06:38:10;27.73;;;16.27;;
18176;SDS011;9213;50.858;3.964;2022-12-18T06:40:37;30.43;;;15.50;;
18176;SDS011;9213;50.858;3.964;2022-12-18T06:43:05;24.00;;;16.03;;
18176;SDS011;9213;50.858;3.964;2022-12-18T06:45:32;24.57;;;16.60;;
18176;SDS011;9213;50.858;3.964;2022-12-18T06:47:59;27.13;;;15.87;;
18176;SDS011;9213;50.858;3.964;2022-12-18T06:50:27;25.63;;;16.10;;
18176;SDS011;9213;50.858;3.964;2022-12-18T06:52:54;26.10;;;15.43;;
18176;SDS011;9213;50.858;3.964;2022-12-18T06:55:21;27.60;;;17.27;;
18176;SDS011;9213;50.858;3.964;2022-12-18T06:57:48;30.77;;;17.23;;
18176;SDS011;9213;50.858;3.964;2022-12-18T07:00:15;23.50;;;15.57;;
18176;SDS011;9213;50.858;3.964;2022-12-18T07:02:42;30.93;;;15.90;;
18176;SDS011;9213;50.858;3.964;2022-12-18T07:05:09;25.07;;;16.13;;
18176;SDS011;9213;50.858;3.964;2022-12-18T07:07:37;27.00;;;15.73;;
18176;SDS011;9213;50.858;3.964;2022-12-18T07:10:04;25.53;;;13.47;;
18176;SDS011;9213;50.858;3.964;2022-12-18T07:12:31;22.67;;;15.10;;
18176;SDS011;9213;50.858;3.964;2022-12-18T07:14:58;21.87;;;14.37;;
18176;SDS011;9213;50.858;3.964;2022-12-18T07:17:25;25.40;;;14.03;;
18176;SDS011;9213;50.858;3.964;2022-12-18T07:19:52;24.47;;;14.87;;
18176;SDS011;9213;50.858;3.964;2022-12-18T07:22:19;24.00;;;13.77;;
18176;SDS011;9213;50.858;3.964;2022-12-18T07:24:47;24.53;;;15.00;;
18176;SDS011;9213;50.858;3.964;2022-12-18T07:27:14;24.77;;;14.60;;
18176;SDS011;9213;50.858;3.964;2022-12-18T07:29:41;27.87;;;15.00;;
18176;SDS011;9213;50.858;3.964;2022-12-18T07:32:08;23.87;;;14.50;;
18176;SDS011;9213;50.858;3.964;2022-12-18T07:34:35;27.83;;;16.20;;
18176;SDS011;9213;50.858;3.964;2022-12-18T07:37:02;29.03;;;15.93;;
18176;SDS011;9213;50.858;3.964;2022-12-18T07:39:29;28.20;;;15.30;;
18176;SDS011;9213;50.858;3.964;2022-12-18T07:41:57;25.40;;;14.90;;
18176;SDS011;9213;50.858;3.964;2022-12-18T07:44:42;26.87;;;15.20;;
18176;SDS011;9213;50.858;3.964;2022-12-18T07:47:08;28.30;;;16.67;;
18176;SDS011;9213;50.858;3.964;2022-12-18T07:49:35;23.00;;;13.73;;
18176;SDS011;9213;50.858;3.964;2022-12-18T07:52:02;27.50;;;14.37;;
18176;SDS011;9213;50.858;3.964;2022-12-18T07:54:29;25.27;;;15.13;;
18176;SDS011;9213;50.858;3.964;2022-12-18T07:56:57;24.37;;;14.90;;
18176;SDS011;9213;50.858;3.964;2022-12-18T07:59:25;23.37;;;15.40;;
18176;SDS011;9213;50.858;3.964;2022-12-18T08:01:52;24.67;;;14.50;;
18176;SDS011;9213;50.858;3.964;2022-12-18T08:04:19;23.13;;;14.67;;
18176;SDS011;9213;50.858;3.964;2022-12-18T08:06:46;27.60;;;13.90;;
18176;SDS011;9213;50.858;3.964;2022-12-18T08:09:13;21.73;;;13.80;;
18176;SDS011;9213;50.858;3.964;2022-12-18T08:11:40;22.70;;;14.13;;
18176;SDS011;9213;50.858;3.964;2022-12-18T08:14:08;24.37;;;14.33;;
18176;SDS011;9213;50.858;3.964;2022-12-18T08:16:35;21.77;;;13.20;;
18176;SDS011;9213;50.858;3.964;2022-12-18T08:19:02;24.67;;;14.33;;
18176;SDS011;9213;50.858;3.964;2022-12-18T08:21:30;22.00;;;13.90;;
18176;SDS011;9213;50.858;3.964;2022-12-18T08:23:58;23.17;;;14.67;;
18176;SDS011;9213;50.858;3.964;2022-12-18T08:26:26;23.07;;;14.27;;
18176;SDS011;9213;50.858;3.964;2022-12-18T08:28:55;26.77;;;15.10;;
18176;SDS011;9213;50.858;3.964;2022-12-18T08:31:24;22.17;;;13.73;;
18176;SDS011;9213;50.858;3.964;2022-12-18T08:33:52;24.13;;;14.13;;
18176;SDS011;9213;50.858;3.964;2022-12-18T08:36:20;21.53;;;12.97;;
18176;SDS011;9213;50.858;3.964;2022-12-18T08:38:47;24.80;;;14.53;;
18176;SDS011;9213;50.858;3.964;2022-12-18T08:41:15;18.40;;;12.53;;
18176;SDS011;9213;50.858;3.964;2022-12-18T08:43:43;22.77;;;13.40;;
18176;SDS011;9213;50.858;3.964;2022-12-18T08:46:31;20.63;;;11.87;;
18176;SDS011;9213;50.858;3.964;2022-12-18T08:49:00;20.07;;;13.37;;
18176;SDS011;9213;50.858;3.964;2022-12-18T08:51:27;20.23;;;13.97;;
18176;SDS011;9213;50.858;3.964;2022-12-18T08:53:54;21.90;;;13.57;;
18176;SDS011;9213;50.858;3.964;2022-12-18T08:56:21;21.77;;;13.07;;
18176;SDS011;9213;50.858;3.964;2022-12-18T08:58:50;24.63;;;13.73;;
18176;SDS011;9213;50.858;3.964;2022-12-18T09:01:18;22.33;;;14.27;;
18176;SDS011;9213;50.858;3.964;2022-12-18T09:03:46;18.57;;;12.93;;
18176;SDS011;9213;50.858;3.964;2022-12-18T09:06:14;19.57;;;11.93;;
18176;SDS011;9213;50.858;3.964;2022-12-18T09:08:41;19.43;;;12.30;;
18176;SDS011;9213;50.858;3.964;2022-12-18T09:11:11;19.93;;;12.53;;
18176;SDS011;9213;50.858;3.964;2022-12-18T09:13:39;19.63;;;11.97;;
18176;SDS011;9213;50.858;3.964;2022-12-18T09:16:06;20.30;;;12.63;;
18176;SDS011;9213;50.858;3.964;2022-12-18T09:18:33;20.50;;;12.83;;
18176;SDS011;9213;50.858;3.964;2022-12-18T09:21:06;19.00;;;11.90;;
18176;SDS011;9213;50.858;3.964;2022-12-18T09:23:34;22.43;;;13.43;;
18176;SDS011;9213;50.858;3.964;2022-12-18T09:26:01;20.77;;;12.70;;
18176;SDS011;9213;50.858;3.964;2022-12-18T09:28:28;22.43;;;12.70;;
18176;SDS011;9213;50.858;3.964;2022-12-18T09:30:55;22.53;;;12.97;;
18176;SDS011;9213;50.858;3.964;2022-12-18T09:33:21;20.30;;;12.60;;
18176;SDS011;9213;50.858;3.964;2022-12-18T09:35:48;20.70;;;13.43;;
18176;SDS011;9213;50.858;3.964;2022-12-18T09:38:17;32.03;;;13.77;;
18176;SDS011;9213;50.858;3.964;2022-12-18T09:40:46;19.10;;;12.63;;
18176;SDS011;9213;50.858;3.964;2022-12-18T09:43:16;20.27;;;12.70;;
18176;SDS011;9213;50.858;3.964;2022-12-18T09:45:46;20.90;;;13.93;;
18176;SDS011;9213;50.858;3.964;2022-12-18T09:48:18;21.80;;;13.80;;
18176;SDS011;9213;50.858;3.964;2022-12-18T09:50:50;21.53;;;13.13;;
18176;SDS011;9213;50.858;3.964;2022-12-18T09:53:22;23.60;;;13.63;;
18176;SDS011;9213;50.858;3.964;2022-12-18T09:55:54;19.47;;;12.60;;
18176;SDS011;9213;50.858;3.964;2022-12-18T09:58:24;22.77;;;13.10;;
18176;SDS011;9213;50.858;3.964;2022-12-18T10:00:56;19.63;;;12.67;;
18176;SDS011;9213;50.858;3.964;2022-12-18T10:03:23;22.07;;;13.67;;
18176;SDS011;9213;50.858;3.964;2022-12-18T10:05:53;20.17;;;12.50;;
18176;SDS011;9213;50.858;3.964;2022-12-18T10:08:28;23.00;;;13.77;;
18176;SDS011;9213;50.858;3.964;2022-12-18T10:11:09;20.10;;;13.57;;
18176;SDS011;9213;50.858;3.964;2022-12-18T10:13:49;24.50;;;14.17;;
18176;SDS011;9213;50.858;3.964;2022-12-18T10:16:22;24.83;;;14.77;;
18176;SDS011;9213;50.858;3.964;2022-12-18T10:19:13;24.23;;;13.90;;
18176;SDS011;9213;50.858;3.964;2022-12-18T10:21:51;21.13;;;13.70;;
18176;SDS011;9213;50.858;3.964;2022-12-18T10:24:28;21.30;;;13.13;;
18176;SDS011;9213;50.858;3.964;2022-12-18T10:27:06;17.87;;;12.10;;
18176;SDS011;9213;50.858;3.964;2022-12-18T10:29:38;21.03;;;13.53;;
18176;SDS011;9213;50.858;3.964;2022-12-18T10:32:06;22.37;;;12.80;;
18176;SDS011;9213;50.858;3.964;2022-12-18T10:34:35;21.67;;;14.37;;
18176;SDS011;9213;50.858;3.964;2022-12-18T10:37:03;21.50;;;13.07;;
18176;SDS011;9213;50.858;3.964;2022-12-18T10:39:39;21.03;;;13.33;;
18176;SDS011;9213;50.858;3.964;2022-12-18T10:42:09;22.13;;;13.90;;
18176;SDS011;9213;50.858;3.964;2022-12-18T10:44:38;22.80;;;14.37;;
18176;SDS011;9213;50.858;3.964;2022-12-18T10:47:05;24.53;;;15.50;;
18176;SDS011;9213;50.858;3.964;2022-12-18T10:49:38;21.50;;;13.70;;
18176;SDS011;9213;50.858;3.964;2022-12-18T10:52:12;21.17;;;13.70;;
18176;SDS011;9213;50.858;3.964;2022-12-18T10:54:47;24.40;;;14.27;;
18176;SDS011;9213;50.858;3.964;2022-12-18T10:57:17;23.80;;;14.87;;
18176;SDS011;9213;50.858;3.964;2022-12-18T10:59:56;22.63;;;14.37;;
18176;SDS011;9213;50.858;3.964;2022-12-18T11:02:26;25.27;;;14.90;;
18176;SDS011;9213;50.858;3.964;2022-12-18T11:04:59;23.27;;;14.43;;
18176;SDS011;9213;50.858;3.964;2022-12-18T11:07:26;26.93;;;16.27;;
18176;SDS011;9213;50.858;3.964;2022-12-18T11:10:17;23.23;;;14.90;;
18176;SDS011;9213;50.858;3.964;2022-12-18T11:12:44;27.83;;;16.40;;
18176;SDS011;9213;50.858;3.964;2022-12-18T11:15:15;23.50;;;14.73;;
18176;SDS011;9213;50.858;3.964;2022-12-18T11:17:44;31.23;;;16.77;;
18176;SDS011;9213;50.858;3.964;2022-12-18T11:20:19;25.37;;;15.73;;
18176;SDS011;9213;50.858;3.964;2022-12-18T11:22:54;26.40;;;16.83;;
18176;SDS011;9213;50.858;3.964;2022-12-18T11:25:24;24.40;;;16.33;;
18176;SDS011;9213;50.858;3.964;2022-12-18T11:27:52;29.97;;;17.53;;
18176;SDS011;9213;50.858;3.964;2022-12-18T11:30:21;26.93;;;16.50;;
18176;SDS011;9213;50.858;3.964;2022-12-18T11:32:51;23.30;;;15.57;;
18176;SDS011;9213;50.858;3.964;2022-12-18T11:35:20;26.80;;;16.33;;
18176;SDS011;9213;50.858;3.964;2022-12-18T11:37:53;28.60;;;16.30;;
18176;SDS011;9213;50.858;3.964;2022-12-18T11:40:27;25.90;;;15.93;;
18176;SDS011;9213;50.858;3.964;2022-12-18T11:42:58;29.23;;;16.10;;
18176;SDS011;9213;50.858;3.964;2022-12-18T11:45:31;27.07;;;15.93;;
18176;SDS011;9213;50.858;3.964;2022-12-18T11:48:03;28.90;;;16.43;;
18176;SDS011;9213;50.858;3.964;2022-12-18T11:50:45;26.03;;;16.07;;
18176;SDS011;9213;50.858;3.964;2022-12-18T11:53:15;23.70;;;15.50;;
18176;SDS011;9213;50.858;3.964;2022-12-18T11:55:47;25.77;;;15.70;;
18176;SDS011;9213;50.858;3.964;2022-12-18T11:58:25;29.87;;;16.73;;
18176;SDS011;9213;50.858;3.964;2022-12-18T12:01:06;26.23;;;15.83;;
18176;SDS011;9213;50.858;3.964;2022-12-18T12:03:51;25.80;;;16.40;;
18176;SDS011;9213;50.858;3.964;2022-12-18T12:06:39;29.27;;;17.97;;
18176;SDS011;9213;50.858;3.964;2022-12-18T12:09:15;28.13;;;15.47;;
18176;SDS011;9213;50.858;3.964;2022-12-18T12:11:56;26.87;;;15.73;;
18176;SDS011;9213;50.858;3.964;2022-12-18T12:14:35;30.00;;;16.27;;
18176;SDS011;9213;50.858;3.964;2022-12-18T12:17:13;26.07;;;15.53;;
18176;SDS011;9213;50.858;3.964;2022-12-18T12:19:48;27.23;;;16.07;;
18176;SDS011;9213;50.858;3.964;2022-12-18T12:22:24;27.87;;;16.47;;
18176;SDS011;9213;50.858;3.964;2022-12-18T12:25:05;26.97;;;15.50;;
18176;SDS011;9213;50.858;3.964;2022-12-18T12:27:45;25.80;;;14.90;;
18176;SDS011;9213;50.858;3.964;2022-12-18T12:30:21;26.60;;;16.20;;
18176;SDS011;9213;50.858;3.964;2022-12-18T12:33:03;28.73;;;15.93;;
18176;SDS011;9213;50.858;3.964;2022-12-18T12:35:44;27.13;;;15.47;;
18176;SDS011;9213;50.858;3.964;2022-12-18T12:38:19;28.33;;;16.37;;
18176;SDS011;9213;50.858;3.964;2022-12-18T12:40:49;27.17;;;16.13;;
18176;SDS011;9213;50.858;3.964;2022-12-18T12:43:23;30.07;;;16.77;;
18176;SDS011;9213;50.858;3.964;2022-12-18T12:45:53;31.07;;;17.93;;
18176;SDS011;9213;50.858;3.964;2022-12-18T12:48:27;29.67;;;18.00;;
18176;SDS011;9213;50.858;3.964;2022-12-18T12:51:00;30.27;;;16.70;;
18176;SDS011;9213;50.858;3.964;2022-12-18T12:53:34;27.93;;;16.43;;
18176;SDS011;9213;50.858;3.964;2022-12-18T12:56:04;29.17;;;17.43;;
18176;SDS011;9213;50.858;3.964;2022-12-18T12:58:33;29.27;;;17.53;;
18176;SDS011;9213;50.858;3.964;2022-12-18T13:01:09;28.47;;;17.37;;
18176;SDS011;9213;50.858;3.964;2022-12-18T13:03:46;29.07;;;17.20;;
18176;SDS011;9213;50.858;3.964;2022-12-18T13:06:22;32.20;;;17.60;;
18176;SDS011;9213;50.858;3.964;2022-12-18T13:08:56;33.73;;;18.63;;
18176;SDS011;9213;50.858;3.964;2022-12-18T13:14:32;31.70;;;18.00;;
18176;SDS011;9213;50.858;3.964;2022-12-18T13:20:08;32.30;;;17.87;;
18176;SDS011;9213;50.858;3.964;2022-12-18T13:22:37;31.20;;;17.30;;
18176;SDS011;9213;50.858;3.964;2022-12-18T13:28:06;32.60;;;18.73;;
18176;SDS011;9213;50.858;3.964;2022-12-18T13:30:42;34.50;;;19.93;;
18176;SDS011;9213;50.858;3.964;2022-12-18T13:33:35;37.80;;;19.40;;
18176;SDS011;9213;50.858;3.964;2022-12-18T13:36:15;36.40;;;19.43;;
18176;SDS011;9213;50.858;3.964;2022-12-18T13:41:37;35.17;;;18.37;;
18176;SDS011;9213;50.858;3.964;2022-12-18T13:44:11;32.33;;;18.87;;
18176;SDS011;9213;50.858;3.964;2022-12-18T13:46:43;33.07;;;19.53;;
18176;SDS011;9213;50.858;3.964;2022-12-18T13:49:18;32.27;;;17.93;;
18176;SDS011;9213;50.858;3.964;2022-12-18T13:51:49;32.83;;;18.17;;
18176;SDS011;9213;50.858;3.964;2022-12-18T13:54:18;31.37;;;18.53;;
18176;SDS011;9213;50.858;3.964;2022-12-18T13:56:49;33.27;;;19.10;;
18176;SDS011;9213;50.858;3.964;2022-12-18T13:59:18;32.23;;;17.83;;
18176;SDS011;9213;50.858;3.964;2022-12-18T14:01:48;33.37;;;19.30;;
18176;SDS011;9213;50.858;3.964;2022-12-18T14:04:18;32.83;;;19.07;;
18176;SDS011;9213;50.858;3.964;2022-12-18T14:06:49;36.20;;;18.97;;
18176;SDS011;9213;50.858;3.964;2022-12-18T14:09:19;31.07;;;18.87;;
18176;SDS011;9213;50.858;3.964;2022-12-18T14:11:51;35.07;;;19.70;;
18176;SDS011;9213;50.858;3.964;2022-12-18T14:14:40;33.00;;;18.43;;
18176;SDS011;9213;50.858;3.964;2022-12-18T14:17:09;34.40;;;18.83;;
18176;SDS011;9213;50.858;3.964;2022-12-18T14:19:40;34.00;;;18.53;;
18176;SDS011;9213;50.858;3.964;2022-12-18T14:22:12;32.33;;;18.13;;
18176;SDS011;9213;50.858;3.964;2022-12-18T14:24:42;32.73;;;18.73;;
18176;SDS011;9213;50.858;3.964;2022-12-18T14:27:13;36.40;;;18.73;;
18176;SDS011;9213;50.858;3.964;2022-12-18T14:29:47;33.37;;;18.63;;
18176;SDS011;9213;50.858;3.964;2022-12-18T14:32:16;37.47;;;19.13;;
18176;SDS011;9213;50.858;3.964;2022-12-18T14:34:45;34.93;;;19.20;;
18176;SDS011;9213;50.858;3.964;2022-12-18T14:37:13;36.43;;;18.57;;
18176;SDS011;9213;50.858;3.964;2022-12-18T14:39:51;35.00;;;18.43;;
18176;SDS011;9213;50.858;3.964;2022-12-18T14:42:19;34.13;;;18.50;;
18176;SDS011;9213;50.858;3.964;2022-12-18T14:44:46;32.53;;;18.30;;
18176;SDS011;9213;50.858;3.964;2022-12-18T14:47:13;37.57;;;18.90;;
18176;SDS011;9213;50.858;3.964;2022-12-18T14:49:43;32.07;;;19.27;;
18176;SDS011;9213;50.858;3.964;2022-12-18T14:52:17;35.53;;;19.00;;
18176;SDS011;9213;50.858;3.964;2022-12-18T14:54:49;31.37;;;18.10;;
18176;SDS011;9213;50.858;3.964;2022-12-18T14:57:20;33.33;;;18.53;;
18176;SDS011;9213;50.858;3.964;2022-12-18T14:59:49;39.10;;;19.73;;
18176;SDS011;9213;50.858;3.964;2022-12-18T15:02:19;34.53;;;17.80;;
18176;SDS011;9213;50.858;3.964;2022-12-18T15:04:59;34.40;;;18.83;;